Bayshore, New York
Current Conditions -  °F | °C
As of 4:27 PM on Tuesday 21 Oct 2014 (Local Time) from KFRG Reporting Station
Thunderstorm Thunderstorm  
Wind Chill: 61°   Ceiling: 11000
Heat Index: 61°   Visibility: 10mi
Dew Point: 57°   Wind: 7mph
Humidity: 87%   Direction: 130°SE
Pressure: 29.84"   Gusts: NA
Location:  40.7379°N, 73.2632°W
Report Text: KFRG 212027Z 13006KT 10SM TS OVC110 16/14 A2984 RMK AO2 LTG DSNT E-S RAE11 TSB21 P0000 T01610139
Loading
Personal Weather Stations






























Interactive Weather Map
Tropical Storm Tracking
New forecast layout! Learn more

10-Day Weather Forecast

Advertisements
Track Severe Weather on mobile